createdAt,value
2019-04-06T00:01:43.101Z,3.00
2019-04-06T00:04:13.092Z,3.05
2019-04-06T00:06:43.030Z,3.50
2019-04-06T00:09:12.947Z,3.52
2019-04-06T00:11:42.860Z,3.12
2019-04-06T00:14:12.774Z,3.65
2019-04-06T00:16:42.997Z,3.58
2019-04-06T00:19:12.911Z,3.15
2019-04-06T00:21:42.826Z,3.50
2019-04-06T00:24:12.845Z,3.40
2019-04-06T00:26:42.861Z,3.40
2019-04-06T00:29:12.774Z,3.27
2019-04-06T00:31:53.749Z,3.92
2019-04-06T00:34:23.868Z,3.30
2019-04-06T00:36:54.707Z,3.83
2019-04-06T00:39:25.031Z,3.45
2019-04-06T00:41:54.947Z,3.40
2019-04-06T00:44:25.269Z,3.45
2019-04-06T00:46:55.183Z,3.33
2019-04-06T00:49:25.097Z,3.20
2019-04-06T00:51:55.332Z,3.55
2019-04-06T00:54:25.338Z,3.67
2019-04-06T00:56:55.353Z,3.37
2019-04-06T00:59:25.269Z,3.40
2019-04-06T01:01:55.228Z,3.58
2019-04-06T01:04:25.210Z,3.67
2019-04-06T01:06:55.116Z,3.90
2019-04-06T01:09:25.322Z,3.67
2019-04-06T01:11:55.356Z,3.67
2019-04-06T01:14:25.270Z,3.37
2019-04-06T01:16:55.189Z,4.30
2019-04-06T01:19:25.106Z,3.70
2019-04-06T01:21:55.090Z,3.42
2019-04-06T01:24:25.136Z,4.05
2019-04-06T01:26:55.458Z,4.03
2019-04-06T01:29:25.372Z,3.37
2019-04-06T01:31:55.289Z,3.47
2019-04-06T01:34:25.283Z,4.25
2019-04-06T01:36:55.324Z,3.67
2019-04-06T01:39:25.134Z,3.72
2019-04-06T01:41:54.972Z,3.47
2019-04-06T01:44:24.861Z,3.72
2019-04-06T01:46:54.777Z,3.55
2019-04-06T01:49:24.690Z,4.03
2019-04-06T01:51:54.605Z,3.85
2019-04-06T01:54:24.827Z,3.27
2019-04-06T01:56:54.741Z,3.85
2019-04-06T01:59:24.662Z,4.15
2019-04-06T02:01:56.212Z,4.08
2019-04-06T02:04:26.126Z,3.75
2019-04-06T02:06:56.039Z,3.92
2019-04-06T02:09:25.954Z,3.50
2019-04-06T02:11:55.842Z,3.42
2019-04-06T02:14:25.798Z,3.90
2019-04-06T02:16:55.695Z,4.47
2019-04-06T02:19:25.589Z,3.72
2019-04-06T02:21:55.396Z,4.08
2019-04-06T02:24:26.179Z,3.50
2019-04-06T02:26:56.072Z,4.08
2019-04-06T02:29:26.297Z,3.92
2019-04-06T02:32:15.842Z,3.92
2019-04-06T02:34:50.076Z,3.83
2019-04-06T02:37:34.261Z,3.62
2019-04-06T02:40:08.119Z,4.37
2019-04-06T02:42:42.327Z,3.98
2019-04-06T02:45:12.579Z,3.65
2019-04-06T02:47:42.464Z,4.17
2019-04-06T02:50:12.408Z,3.95
2019-04-06T02:52:42.237Z,3.95
2019-04-06T02:55:12.107Z,4.03
2019-04-06T02:57:42.023Z,3.90
2019-04-06T03:00:12.179Z,3.90
2019-04-06T03:02:42.051Z,3.75
2019-04-06T03:05:12.034Z,3.65
2019-04-06T03:07:42.093Z,3.35
2019-04-06T03:10:12.037Z,4.15
2019-04-06T03:12:41.920Z,5.08
2019-04-06T03:15:13.474Z,4.85
2019-04-06T03:17:43.417Z,4.22
2019-04-06T03:20:13.304Z,3.80
2019-04-06T03:22:43.164Z,4.00
2019-04-06T03:25:13.045Z,3.90
2019-04-06T03:27:42.921Z,4.10
2019-04-06T03:30:12.748Z,3.83
2019-04-06T03:32:42.560Z,4.20
2019-04-06T03:35:13.553Z,3.87
2019-04-06T03:37:43.456Z,4.50
2019-04-06T03:40:13.251Z,3.70
2019-04-06T03:42:43.147Z,4.97
2019-04-06T03:45:12.977Z,3.98
2019-04-06T03:47:42.788Z,4.12
2019-04-06T03:50:14.152Z,4.17
2019-04-06T03:52:44.328Z,4.60
2019-04-06T03:55:14.185Z,4.37
2019-04-06T03:57:44.031Z,4.37
2019-04-06T04:00:13.865Z,4.40
2019-04-06T04:02:44.138Z,4.25
2019-04-06T04:05:14.060Z,3.87
2019-04-06T04:07:43.963Z,3.72
2019-04-06T04:10:17.226Z,4.47
2019-04-06T04:12:47.276Z,4.03
2019-04-06T04:15:17.191Z,3.77
2019-04-06T04:17:47.110Z,3.60
2019-04-06T04:20:17.027Z,4.05
2019-04-06T04:22:46.939Z,4.22
2019-04-06T04:25:16.947Z,4.15
2019-04-06T04:27:46.867Z,3.80
2019-04-06T04:30:30.784Z,3.98
2019-04-06T04:32:48.334Z,3.67
2019-04-06T04:35:18.609Z,3.47
2019-04-06T04:37:48.982Z,3.83
2019-04-06T04:40:18.897Z,4.00
2019-04-06T04:42:48.879Z,3.20
2019-04-06T04:45:18.921Z,3.33
2019-04-06T04:47:50.344Z,3.83
2019-04-06T04:50:20.511Z,3.90
2019-04-06T04:52:50.417Z,3.72
2019-04-06T04:55:20.332Z,3.33
2019-04-06T04:57:50.379Z,3.77
2019-04-06T05:00:20.570Z,3.60
2019-04-06T05:02:50.895Z,3.85
2019-04-06T05:05:20.809Z,3.42
2019-04-06T05:07:50.725Z,3.92
2019-04-06T05:10:22.583Z,3.60
2019-04-06T05:12:52.498Z,3.98
2019-04-06T05:15:34.603Z,3.52
2019-04-06T05:18:04.518Z,4.05
2019-04-06T05:20:34.429Z,3.72
2019-04-06T05:23:04.651Z,4.00
2019-04-06T05:25:34.486Z,3.42
2019-04-06T05:28:04.484Z,3.70
2019-04-06T05:30:34.395Z,3.95
2019-04-06T05:33:04.223Z,3.80
2019-04-06T05:35:34.369Z,3.40
2019-04-06T05:38:04.341Z,4.35
2019-04-06T05:40:34.268Z,3.50
2019-04-06T05:43:04.174Z,3.40
2019-04-06T05:45:34.088Z,3.92
2019-04-06T05:48:04.004Z,3.20
2019-04-06T05:50:34.840Z,3.62
2019-04-06T05:53:04.755Z,4.47
2019-04-06T05:55:34.679Z,3.70
2019-04-06T05:58:09.772Z,3.72
2019-04-06T06:00:40.152Z,3.37
2019-04-06T06:03:08.608Z,3.42
2019-04-06T06:05:41.029Z,3.30
2019-04-06T06:08:11.002Z,3.80
2019-04-06T06:10:40.924Z,3.65
2019-04-06T06:13:10.911Z,3.60
2019-04-06T06:15:40.950Z,3.47
2019-04-06T06:18:10.864Z,3.77
2019-04-06T06:20:40.782Z,3.85
2019-04-06T06:23:10.696Z,4.12
2019-04-06T06:25:40.902Z,3.27
2019-04-06T06:28:15.278Z,3.52
2019-04-06T06:30:42.281Z,3.55
2019-04-06T06:33:12.180Z,3.65
2019-04-06T06:35:43.074Z,3.10
2019-04-06T06:38:13.050Z,3.75
2019-04-06T06:40:43.110Z,3.70
2019-04-06T06:43:13.641Z,3.90
2019-04-06T06:45:43.719Z,3.90
2019-04-06T06:48:13.649Z,3.60
2019-04-06T06:50:43.545Z,4.00
2019-04-06T06:53:13.531Z,4.12
2019-04-06T06:55:43.682Z,4.00
2019-04-06T06:58:24.241Z,3.90
2019-04-06T07:00:45.049Z,4.42
2019-04-06T07:03:15.005Z,3.60
2019-04-06T07:05:44.979Z,3.87
2019-04-06T07:08:15.084Z,4.12
2019-04-06T07:10:46.448Z,3.90
2019-04-06T07:13:16.364Z,3.98
2019-04-06T07:15:46.427Z,3.92
2019-04-06T07:18:16.500Z,3.55
2019-04-06T07:20:47.436Z,4.25
2019-04-06T07:23:17.537Z,3.98
2019-04-06T07:25:56.663Z,4.30
2019-04-06T07:28:19.434Z,4.90
2019-04-06T07:30:49.348Z,4.87
2019-04-06T07:33:19.265Z,4.60
2019-04-06T07:35:49.487Z,4.78
2019-04-06T07:38:19.810Z,4.50
2019-04-06T07:40:49.827Z,4.92
2019-04-06T07:43:19.741Z,4.47
2019-04-06T07:45:49.658Z,4.60
2019-04-06T07:48:19.771Z,4.47
2019-04-06T07:50:49.998Z,4.65
2019-04-06T07:53:19.897Z,4.30
2019-04-06T07:55:50.836Z,4.78
2019-04-06T07:58:20.767Z,4.40
2019-04-06T08:00:50.680Z,4.45
2019-04-06T08:03:20.600Z,4.17
2019-04-06T08:05:50.512Z,4.00
2019-04-06T08:08:21.449Z,4.28
2019-04-06T08:10:51.446Z,4.17
2019-04-06T08:13:21.582Z,4.17
2019-04-06T08:15:51.603Z,4.12
2019-04-06T08:18:21.620Z,4.33
2019-04-06T08:20:51.945Z,4.30
2019-04-06T08:23:21.859Z,4.33
2019-04-06T08:25:51.837Z,4.28
2019-04-06T08:28:21.791Z,3.55
2019-04-06T08:30:51.711Z,3.95
2019-04-06T08:33:21.722Z,4.50
2019-04-06T08:35:51.549Z,3.70
2019-04-06T08:38:21.451Z,4.10
2019-04-06T08:40:51.365Z,4.00
2019-04-06T08:43:21.279Z,3.98
2019-04-06T08:45:51.197Z,4.00
2019-04-06T08:48:21.109Z,4.75
2019-04-06T08:50:51.024Z,3.55
2019-04-06T08:53:20.951Z,3.72
2019-04-06T08:55:51.085Z,3.52
2019-04-06T08:58:21.496Z,3.62
2019-04-06T09:00:51.502Z,3.55
2019-04-06T09:03:21.370Z,3.67
2019-04-06T09:05:51.331Z,4.70
2019-04-06T09:08:21.313Z,4.00
2019-04-06T09:11:02.221Z,4.40
2019-04-06T09:13:32.236Z,4.22
2019-04-06T09:16:03.883Z,4.20
2019-04-06T09:18:33.853Z,4.50
2019-04-06T09:21:04.132Z,4.40
2019-04-06T09:23:34.047Z,4.15
2019-04-06T09:26:03.963Z,3.90
2019-04-06T09:28:34.021Z,4.42
2019-04-06T09:31:04.175Z,4.15
2019-04-06T09:33:34.265Z,4.62
2019-04-06T09:36:04.235Z,4.37
2019-04-06T09:38:34.149Z,3.98
2019-04-06T09:41:04.234Z,3.80
2019-04-06T09:43:34.453Z,4.30
2019-04-06T09:46:09.489Z,3.58
2019-04-06T09:48:43.843Z,4.80
2019-04-06T09:51:18.676Z,3.75
2019-04-06T09:54:04.549Z,3.77
2019-04-06T09:56:32.594Z,3.52
2019-04-06T09:59:04.191Z,3.90
2019-04-06T10:01:39.448Z,3.20
2019-04-06T10:04:27.774Z,3.30
2019-04-06T10:07:05.574Z,3.70
2019-04-06T10:09:37.128Z,3.98
2019-04-06T10:12:20.664Z,3.40
2019-04-06T10:17:36.615Z,3.58
2019-04-06T10:20:28.090Z,3.30
2019-04-06T10:23:02.726Z,3.50
2019-04-06T10:25:34.574Z,2.92
2019-04-06T10:28:12.374Z,4.25
2019-04-06T10:30:55.806Z,3.30
2019-04-06T10:33:36.780Z,3.20
2019-04-06T10:36:24.621Z,3.17
2019-04-06T10:38:59.107Z,3.60
2019-04-06T10:41:34.482Z,3.12
2019-04-06T10:44:22.315Z,3.37
2019-04-06T10:47:02.881Z,3.15
2019-04-06T10:49:47.038Z,3.20
2019-04-06T10:52:22.369Z,2.98
2019-04-06T10:55:06.415Z,3.22
2019-04-06T10:57:43.702Z,3.35
2019-04-06T11:00:33.380Z,3.42
2019-04-06T11:03:21.123Z,2.90
2019-04-06T11:06:01.458Z,3.20
2019-04-06T11:08:41.935Z,2.95
2019-04-06T11:11:29.668Z,3.05
2019-04-06T11:14:05.353Z,3.17
2019-04-06T11:16:53.763Z,3.00
2019-04-06T11:19:42.011Z,3.10
2019-04-06T11:22:17.213Z,2.90
2019-04-06T11:25:07.402Z,2.90
2019-04-06T11:27:51.078Z,2.80
2019-04-06T11:32:57.027Z,3.20
2019-04-06T11:35:28.807Z,3.25
2019-04-06T11:38:00.363Z,2.65
2019-04-06T11:40:34.988Z,3.00
2019-04-06T11:43:23.333Z,2.75
2019-04-06T11:46:10.148Z,2.70
2019-04-06T11:48:45.637Z,2.98
2019-04-06T11:51:20.850Z,2.83
2019-04-06T11:53:58.320Z,2.75
2019-04-06T11:56:46.367Z,2.75
2019-04-06T11:59:17.916Z,2.90
2019-04-06T12:01:49.466Z,2.80
2019-04-06T12:04:21.019Z,2.80
2019-04-06T12:06:52.982Z,2.98
2019-04-06T12:09:33.689Z,2.80
2019-04-06T12:12:05.306Z,2.95
2019-04-06T12:14:36.859Z,2.87
2019-04-06T12:17:17.547Z,2.67
2019-04-06T12:20:06.359Z,2.90
2019-04-06T12:22:44.605Z,2.95
2019-04-06T12:25:31.815Z,3.72
2019-04-06T12:28:21.337Z,2.70
2019-04-06T12:30:55.970Z,2.90
2019-04-06T12:33:39.856Z,2.92
2019-04-06T12:36:17.351Z,3.20
2019-04-06T12:38:52.057Z,2.65
2019-04-06T12:41:30.182Z,3.27
2019-04-06T12:44:18.772Z,3.42
2019-04-06T12:46:50.783Z,2.80
2019-04-06T12:49:38.531Z,2.72
2019-04-06T12:52:10.411Z,2.75
2019-04-06T12:54:51.169Z,2.65
2019-04-06T12:57:25.375Z,3.22
2019-04-06T13:00:12.188Z,2.85
2019-04-06T13:02:56.029Z,3.05
2019-04-06T13:05:42.839Z,3.42
2019-04-06T13:11:11.443Z,3.47
2019-04-06T13:13:46.171Z,2.77
2019-04-06T13:16:17.780Z,3.00
2019-04-06T13:19:05.762Z,3.27
2019-04-06T13:21:43.395Z,2.80
2019-04-06T13:24:15.015Z,2.70
2019-04-06T13:26:59.062Z,2.85
2019-04-06T13:29:47.100Z,2.92
2019-04-06T13:32:19.041Z,2.72
2019-04-06T13:35:09.150Z,2.70
2019-04-06T13:37:59.347Z,3.02
2019-04-06T13:40:43.717Z,2.77
2019-04-06T13:43:21.084Z,2.83
2019-04-06T13:45:52.640Z,2.80
2019-04-06T13:48:30.234Z,2.70
2019-04-06T13:51:02.196Z,2.87
2019-04-06T13:53:50.439Z,2.70
2019-04-06T13:56:38.521Z,2.85
2019-04-06T13:59:16.175Z,2.35
2019-04-06T14:02:04.216Z,2.72
2019-04-06T14:04:36.178Z,3.02
2019-04-06T14:07:08.040Z,2.80
2019-04-06T14:09:49.013Z,2.98
2019-04-06T14:12:20.777Z,2.92
2019-04-06T14:14:58.263Z,2.50
2019-04-06T14:17:46.304Z,2.50
2019-04-06T14:20:34.036Z,2.55
2019-04-06T14:23:08.564Z,2.67
2019-04-06T14:25:58.441Z,2.55
2019-04-06T14:28:46.379Z,2.80
2019-04-06T14:31:28.160Z,2.72
2019-04-06T14:33:54.081Z,2.70
2019-04-06T14:36:25.748Z,2.80
2019-04-06T14:39:09.080Z,2.72
2019-04-06T14:41:49.949Z,2.72
2019-04-06T14:44:39.115Z,2.75
2019-04-06T14:47:10.978Z,2.70
2019-04-06T14:49:54.819Z,2.83
2019-04-06T14:52:43.111Z,2.83
2019-04-06T14:55:14.821Z,2.87
2019-04-06T14:57:48.938Z,3.00
2019-04-06T15:00:26.323Z,2.55
2019-04-06T15:02:58.219Z,3.08
2019-04-06T15:05:42.024Z,2.65
2019-04-06T15:08:23.344Z,2.40
2019-04-06T15:11:04.381Z,2.80
2019-04-06T15:13:38.688Z,2.95
2019-04-06T15:16:13.286Z,2.70
2019-04-06T15:18:48.053Z,2.92
2019-04-06T15:21:20.035Z,2.95
2019-04-06T15:23:57.200Z,2.83
2019-04-06T15:26:45.223Z,3.00
2019-04-06T15:29:28.978Z,2.77
2019-04-06T15:32:15.547Z,3.00
2019-04-06T15:34:47.286Z,2.87
2019-04-06T15:37:35.393Z,3.30
2019-04-06T15:40:13.850Z,2.75
2019-04-06T15:42:45.904Z,2.98
2019-04-06T15:45:17.832Z,2.70
2019-04-06T15:47:49.389Z,3.15
2019-04-06T15:50:37.418Z,3.08
2019-04-06T15:53:21.059Z,2.92
2019-04-06T15:56:07.402Z,2.90
2019-04-06T15:58:39.008Z,3.30
2019-04-06T16:01:10.567Z,2.60
2019-04-06T16:03:59.419Z,2.60
2019-04-06T16:06:31.199Z,2.90
2019-04-06T16:09:02.935Z,3.00
2019-04-06T16:11:35.717Z,2.95
2019-04-06T16:14:07.272Z,3.02
2019-04-06T16:16:42.187Z,2.98
2019-04-06T16:19:25.739Z,2.83
2019-04-06T16:22:13.778Z,2.47
2019-04-06T16:24:45.600Z,2.75
2019-04-06T16:27:33.275Z,2.55
2019-04-06T16:30:05.538Z,3.00
2019-04-06T16:32:39.894Z,2.77
2019-04-06T16:35:26.847Z,2.80
2019-04-06T16:38:02.151Z,2.92
2019-04-06T16:41:00.212Z,3.00
2019-04-06T16:43:35.031Z,3.00
2019-04-06T16:46:12.897Z,3.10
2019-04-06T16:48:50.331Z,2.60
2019-04-06T16:51:33.886Z,3.35
2019-04-06T16:54:17.698Z,2.90
2019-04-06T16:56:55.181Z,3.27
2019-04-06T16:59:29.903Z,3.33
2019-04-06T17:02:04.211Z,3.40
2019-04-06T17:04:36.202Z,3.30
2019-04-06T17:07:07.942Z,3.70
2019-04-06T17:09:51.888Z,3.50
2019-04-06T17:12:38.492Z,3.72
2019-04-06T17:15:19.772Z,5.85
2019-04-06T17:18:06.871Z,5.05
2019-04-06T17:20:56.774Z,5.47
2019-04-06T17:23:28.344Z,5.95
2019-04-06T17:26:08.789Z,5.70
2019-04-06T17:28:40.344Z,5.58
2019-04-06T17:31:17.937Z,5.95
2019-04-06T17:33:49.594Z,5.90
2019-04-06T17:36:27.426Z,6.67
2019-04-06T17:39:02.757Z,6.75
2019-04-06T17:41:45.142Z,6.78
2019-04-06T17:44:34.872Z,7.87
2019-04-06T17:47:23.126Z,6.08
2019-04-06T17:49:57.815Z,6.62
2019-04-06T17:52:35.848Z,6.62
2019-04-06T17:55:19.535Z,7.17
2019-04-06T17:58:00.296Z,7.17
2019-04-06T18:00:48.355Z,6.65
2019-04-06T18:03:35.463Z,6.33
2019-04-06T18:06:22.376Z,6.80
2019-04-06T18:09:07.233Z,6.80
2019-04-06T18:11:42.071Z,6.45
2019-04-06T18:14:12.335Z,6.60
2019-04-06T18:16:42.207Z,6.42
2019-04-06T18:19:12.480Z,6.70
2019-04-06T18:21:42.469Z,6.45
2019-04-06T18:24:12.596Z,6.62
2019-04-06T18:26:42.748Z,5.75
2019-04-06T18:29:12.702Z,6.83
2019-04-06T18:32:03.627Z,6.45
2019-04-06T18:34:33.628Z,6.33
2019-04-06T18:37:05.101Z,6.17
2019-04-06T18:39:34.946Z,6.05
2019-04-06T18:42:05.257Z,5.85
2019-04-06T18:44:35.352Z,7.37
2019-04-06T18:47:05.249Z,6.25
2019-04-06T18:49:35.172Z,6.72
2019-04-06T18:52:05.127Z,6.47
2019-04-06T18:54:35.199Z,6.28
2019-04-06T18:57:05.113Z,6.87
2019-04-06T18:59:35.830Z,6.33
2019-04-06T19:02:05.864Z,6.05
2019-04-06T19:04:35.791Z,6.37
2019-04-06T19:07:06.083Z,6.40
2019-04-06T19:09:36.939Z,6.37
2019-04-06T19:12:06.853Z,6.20
2019-04-06T19:14:37.188Z,6.30
2019-04-06T19:17:07.336Z,6.45
2019-04-06T19:19:37.408Z,6.22
2019-04-06T19:22:07.434Z,5.72
2019-04-06T19:24:37.350Z,6.45
2019-04-06T19:27:07.177Z,5.40
2019-04-06T19:29:37.281Z,6.05
2019-04-06T19:32:07.297Z,6.03
2019-04-06T19:34:37.314Z,6.28
2019-04-06T19:37:08.822Z,5.75
2019-04-06T19:39:38.783Z,6.00
2019-04-06T19:42:09.259Z,6.22
2019-04-06T19:44:39.332Z,6.08
2019-04-06T19:47:09.244Z,5.83
2019-04-06T19:49:39.159Z,5.35
2019-04-06T19:52:09.592Z,5.90
2019-04-06T19:54:39.606Z,6.08
2019-04-06T19:57:09.730Z,6.58
2019-04-06T19:59:39.647Z,6.33
2019-04-06T20:02:09.551Z,5.70
2019-04-06T20:04:40.154Z,6.33
2019-04-06T20:07:11.431Z,6.05
2019-04-06T20:09:42.113Z,6.05
2019-04-06T20:12:12.510Z,5.78
2019-04-06T20:14:42.915Z,5.40
2019-04-06T20:17:13.238Z,6.28
2019-04-06T20:19:43.214Z,6.33
2019-04-06T20:22:13.758Z,5.90
2019-04-06T20:24:44.141Z,6.00
2019-04-06T20:27:14.214Z,6.00
2019-04-06T20:29:44.288Z,5.33
2019-04-06T20:32:14.360Z,5.00
2019-04-06T20:34:44.388Z,5.80
2019-04-06T20:37:14.892Z,5.17
2019-04-06T20:39:44.828Z,4.78
2019-04-06T20:42:14.743Z,5.60
2019-04-06T20:44:44.573Z,4.87
2019-04-06T20:47:14.467Z,5.30
2019-04-06T20:49:44.384Z,5.45
2019-04-06T20:52:14.296Z,5.40
2019-04-06T20:54:44.212Z,5.47
2019-04-06T20:57:14.355Z,4.83
2019-04-06T20:59:44.806Z,4.85
2019-04-06T21:02:14.992Z,4.95
2019-04-06T21:04:44.906Z,4.70
2019-04-06T21:07:14.817Z,4.87
2019-04-06T21:09:45.954Z,5.22
2019-04-06T21:12:15.992Z,4.90
2019-04-06T21:14:46.191Z,4.70
2019-04-06T21:17:16.249Z,4.87
2019-04-06T21:19:47.025Z,4.45
2019-04-06T21:22:17.265Z,4.65
2019-04-06T21:37:49.468Z,4.37
2019-04-06T21:40:19.857Z,4.53
2019-04-06T21:42:49.881Z,4.25
2019-04-06T21:45:19.795Z,3.47
2019-04-06T21:47:50.734Z,4.17
2019-04-06T21:50:20.621Z,4.08
2019-04-06T21:52:52.074Z,3.98
2019-04-06T21:55:22.091Z,4.30
2019-04-06T21:57:52.005Z,4.15
2019-04-06T22:00:27.835Z,4.10
2019-04-06T22:02:59.496Z,4.25
2019-04-06T22:05:29.604Z,3.80
2019-04-06T22:07:59.578Z,4.03
2019-04-06T22:10:29.819Z,3.83
2019-04-06T22:13:00.231Z,3.95
2019-04-06T22:15:30.516Z,3.85
2019-04-06T22:18:01.194Z,3.98
2019-04-06T22:20:31.206Z,3.67
2019-04-06T22:23:01.705Z,3.35
2019-04-06T22:25:31.746Z,3.83
2019-04-06T22:28:01.885Z,2.95
2019-04-06T22:30:31.987Z,3.60
2019-04-06T22:33:01.905Z,3.60
2019-04-06T22:35:31.780Z,3.52
2019-04-06T22:38:02.163Z,3.42
2019-04-06T22:40:32.514Z,3.12
2019-04-06T22:43:03.022Z,3.87
2019-04-06T22:45:33.692Z,4.00
2019-04-06T22:48:03.637Z,3.35
2019-04-06T22:50:33.773Z,3.50
2019-04-06T22:53:04.811Z,3.17
2019-04-06T22:55:34.665Z,3.33
2019-04-06T22:58:04.932Z,3.37
2019-04-06T23:00:36.462Z,3.58
2019-04-06T23:03:10.807Z,3.15
2019-04-06T23:05:55.262Z,3.35
2019-04-06T23:08:25.664Z,2.72
2019-04-06T23:10:56.120Z,3.20
2019-04-06T23:13:26.895Z,3.20
2019-04-06T23:15:56.942Z,2.98
2019-04-06T23:18:27.484Z,3.02
2019-04-06T23:20:57.617Z,3.10
2019-04-06T23:23:27.530Z,3.37
2019-04-06T23:25:57.755Z,3.33
2019-04-06T23:28:27.642Z,3.08
2019-04-06T23:30:58.565Z,3.00
2019-04-06T23:33:29.087Z,3.52
2019-04-06T23:35:58.950Z,2.90
2019-04-06T23:38:29.332Z,3.20
2019-04-06T23:41:00.195Z,2.87
2019-04-06T23:43:30.306Z,3.58
2019-04-06T23:46:00.697Z,3.50
2019-04-06T23:48:31.261Z,3.60
2019-04-06T23:51:01.183Z,3.80
2019-04-06T23:53:31.657Z,3.45
2019-04-06T23:56:02.157Z,3.33
2019-04-06T23:58:32.527Z,3.25
